createdAt,value
2018-01-19T11:52:24.858Z,25.3
2018-01-19T11:53:24.532Z,25.2
2018-01-19T11:54:24.590Z,25.2
2018-01-19T11:55:24.617Z,25.3
2018-01-19T11:56:30.355Z,25.2
2018-01-19T11:57:26.887Z,25.2
2018-01-19T11:58:24.971Z,25.3
2018-01-19T11:59:25.016Z,25.4
2018-01-19T12:00:26.853Z,25.5
2018-01-19T12:01:25.231Z,25.6
2018-01-19T12:02:25.003Z,25.7
2018-01-19T12:03:27.206Z,25.8
2018-01-19T12:04:25.162Z,25.8
2018-01-19T12:05:27.388Z,25.9
2018-01-19T12:06:25.204Z,25.9
2018-01-19T12:07:25.223Z,26
2018-01-19T12:08:25.304Z,26
2018-01-19T12:09:25.407Z,26
2018-01-19T12:10:27.665Z,26
2018-01-19T12:11:27.926Z,26
2018-01-19T12:12:25.680Z,25.9
2018-01-19T12:13:27.874Z,25.8
2018-01-19T12:14:27.901Z,25.4
2018-01-19T12:15:25.798Z,25.3
2018-01-19T12:16:26.436Z,25.3
2018-01-19T12:17:25.883Z,25
2018-01-19T12:18:26.520Z,24.8
2018-01-19T12:19:26.237Z,24.8
2018-01-19T12:20:27.372Z,24.8
2018-01-19T12:21:27.965Z,24.9
2018-01-19T12:22:28.599Z,25
2018-01-19T12:23:28.193Z,25.2
2018-01-19T12:24:26.179Z,25.3
2018-01-19T12:25:28.034Z,25.4
2018-01-19T12:26:26.403Z,25.4
2018-01-19T12:27:26.358Z,25.5
2018-01-19T12:28:28.349Z,25.6
2018-01-19T12:29:26.292Z,25.6
2018-01-19T12:30:28.646Z,25.7
2018-01-19T12:31:28.537Z,25.7
2018-01-19T12:32:27.462Z,25.7
2018-01-19T12:33:26.892Z,25.7
2018-01-19T12:34:28.650Z,25.7
2018-01-19T12:35:28.984Z,25.7
2018-01-19T12:36:26.807Z,25.8
2018-01-19T12:37:27.307Z,25.8
2018-01-19T12:38:27.366Z,25.8
2018-01-19T12:39:26.717Z,25.7
2018-01-19T12:40:29.134Z,25.7
2018-01-19T12:41:28.894Z,25.5
2018-01-19T12:42:28.966Z,25
2018-01-19T12:43:26.918Z,24.5
2018-01-19T12:44:29.082Z,24.1
2018-01-19T12:45:27.019Z,24.1
2018-01-19T12:46:26.976Z,24.1
2018-01-19T12:47:27.334Z,24.2
2018-01-19T12:48:27.148Z,24.3
2018-01-19T12:49:27.437Z,24.5
2018-01-19T12:50:29.456Z,24.6
2018-01-19T12:51:28.008Z,24.7
2018-01-19T12:52:29.494Z,24.8
2018-01-19T12:53:27.406Z,24.9
2018-01-19T12:54:29.639Z,25
2018-01-19T12:55:27.573Z,25.1
2018-01-19T12:56:29.806Z,25.2
2018-01-19T12:57:27.572Z,25.2
2018-01-19T12:58:27.689Z,25.3
2018-01-19T12:59:27.963Z,25.2
2018-01-19T13:00:27.736Z,25
2018-01-19T13:01:29.621Z,24.7
2018-01-19T13:02:27.823Z,24.4
2018-01-19T13:03:30.012Z,24.2
2018-01-19T13:04:27.976Z,24.2
2018-01-19T13:05:30.164Z,24.3
2018-01-19T13:06:30.103Z,24.4
2018-01-19T13:07:30.261Z,24.5
2018-01-19T13:08:30.305Z,24.7
2018-01-19T13:09:30.314Z,24.8
2018-01-19T13:10:29.539Z,24.9
2018-01-19T13:11:30.282Z,25.1
2018-01-19T13:12:28.522Z,25.2
2018-01-19T13:13:30.656Z,25.3
2018-01-19T13:14:28.734Z,25.4
2018-01-19T13:15:28.486Z,25.5
2018-01-19T13:16:28.821Z,25.6
2018-01-19T13:17:28.698Z,25.7
2018-01-19T13:18:29.069Z,25.8
2018-01-19T13:19:30.777Z,25.9
2018-01-19T13:20:30.767Z,25.9
2018-01-19T13:21:31.060Z,26
2018-01-19T13:22:29.042Z,26
2018-01-19T13:23:29.104Z,26.1
2018-01-19T13:24:29.295Z,26.1
2018-01-19T13:25:29.186Z,26.2
2018-01-19T13:26:31.404Z,26.2
2018-01-19T13:27:29.246Z,26.2
2018-01-19T13:28:29.626Z,26.3
2018-01-19T13:29:31.226Z,26.3
2018-01-19T13:30:29.597Z,26.3
2018-01-19T13:31:29.427Z,26.3
2018-01-19T13:32:30.030Z,26.4
2018-01-19T13:33:29.504Z,26.4
2018-01-19T13:34:29.605Z,26.4
2018-01-19T13:35:31.799Z,26.5
2018-01-19T13:36:30.016Z,26.5
2018-01-19T13:37:30.058Z,26.5
2018-01-19T13:38:29.913Z,26.5
2018-01-19T13:39:32.001Z,26.5
2018-01-19T13:40:30.265Z,26.6
2018-01-19T13:41:30.007Z,26.6
2018-01-19T13:42:31.605Z,26.6
2018-01-19T13:43:30.286Z,26.6
2018-01-19T13:44:30.110Z,26.7
2018-01-19T13:45:30.297Z,26.7
2018-01-19T13:46:30.305Z,26.7
2018-01-19T13:47:30.195Z,26.7
2018-01-19T13:48:32.476Z,26.8
2018-01-19T13:49:30.614Z,26.8
2018-01-19T13:50:30.353Z,26.8
2018-01-19T13:51:32.651Z,26.8
2018-01-19T13:52:30.792Z,26.8
2018-01-19T13:53:30.589Z,26.9
2018-01-19T13:54:32.572Z,26.9
2018-01-19T13:55:30.872Z,26.9
2018-01-19T13:56:30.758Z,26.9
2018-01-19T13:57:32.949Z,26.9
2018-01-19T13:58:33.026Z,27
2018-01-19T13:59:31.627Z,26.9
2018-01-19T14:00:31.191Z,27
2018-01-19T14:01:33.283Z,27
2018-01-19T14:02:31.053Z,27
2018-01-19T14:03:31.273Z,27
2018-01-19T14:04:31.117Z,27
2018-01-19T14:05:31.369Z,27
2018-01-19T14:06:33.328Z,27
2018-01-19T14:07:33.200Z,27
2018-01-19T14:08:33.195Z,27.1
2018-01-19T14:09:31.573Z,27.1
2018-01-19T14:10:31.332Z,27.1
2018-01-19T14:11:31.609Z,27.1
2018-01-19T14:12:33.587Z,27.1
2018-01-19T14:13:31.671Z,27.1
2018-01-19T14:14:33.461Z,27.1
2018-01-19T14:15:31.827Z,27.2
2018-01-19T14:16:31.924Z,27.2
2018-01-19T14:17:31.959Z,27.2
2018-01-19T14:18:34.465Z,27.2
2018-01-19T14:19:34.014Z,27.1
2018-01-19T14:20:32.522Z,27.1
2018-01-19T14:21:32.024Z,27
2018-01-19T14:22:32.168Z,27
2018-01-19T14:23:32.230Z,27
2018-01-19T14:24:34.066Z,27
2018-01-19T14:25:34.556Z,27
2018-01-19T14:26:32.391Z,26.9
2018-01-19T14:27:32.303Z,26.9
2018-01-19T14:28:32.369Z,26.9
2018-01-19T14:29:32.905Z,26.9
2018-01-19T14:30:33.101Z,26.8
2018-01-19T14:31:34.342Z,26.8
2018-01-19T14:32:32.564Z,26.8
2018-01-19T14:33:34.681Z,26.9
2018-01-19T14:34:34.850Z,26.9
2018-01-19T14:35:34.910Z,26.9
2018-01-19T14:36:32.869Z,26.9
2018-01-19T14:37:32.921Z,26.9
2018-01-19T14:38:33.012Z,26.9
2018-01-19T14:39:33.257Z,27
2018-01-19T14:40:35.226Z,27
2018-01-19T14:41:35.193Z,27
2018-01-19T14:42:33.396Z,27.1
2018-01-19T14:43:35.469Z,27.1
2018-01-19T14:44:33.619Z,27.1
2018-01-19T14:45:33.497Z,27.1
2018-01-19T14:46:35.506Z,27.1
2018-01-19T14:47:36.884Z,27.2
2018-01-19T14:48:35.476Z,27.2
2018-01-19T14:49:33.501Z,27.2
2018-01-19T14:50:34.349Z,27.2
2018-01-19T14:51:33.844Z,27.2
2018-01-19T14:52:33.866Z,27.3
2018-01-19T14:53:33.808Z,27.3
2018-01-19T14:54:36.348Z,27.3
2018-01-19T14:55:33.765Z,27.3
2018-01-19T14:56:36.075Z,27.3
2018-01-19T14:57:34.289Z,27.3
2018-01-19T14:58:33.906Z,27.3
2018-01-19T14:59:38.025Z,27.3
2018-01-19T15:00:34.604Z,27.3
2018-01-19T15:01:37.188Z,27.3
2018-01-19T15:02:38.572Z,27.3
2018-01-19T15:03:35.449Z,27.3
2018-01-19T15:04:38.120Z,27.3
2018-01-19T15:05:35.338Z,27.3
2018-01-19T15:06:37.202Z,27.3
2018-01-19T15:07:34.963Z,27.3
2018-01-19T15:08:37.414Z,27.3
2018-01-19T15:09:35.095Z,27.4
2018-01-19T15:10:35.381Z,27.4
2018-01-19T15:11:35.236Z,27.4
2018-01-19T15:12:35.546Z,27.4
2018-01-19T15:13:36.971Z,27.4
2018-01-19T15:14:37.808Z,27.4
2018-01-19T15:15:37.459Z,27.4
2018-01-19T15:16:36.153Z,27.4
2018-01-19T15:17:35.002Z,27.4
2018-01-19T15:18:35.244Z,27.4
2018-01-19T15:19:35.246Z,27.4
2018-01-19T15:20:35.214Z,27.4
2018-01-19T15:21:35.210Z,27.4
2018-01-19T15:22:35.155Z,27.4
2018-01-19T15:23:35.203Z,27.4
2018-01-19T15:24:37.368Z,27.4
2018-01-19T15:25:37.507Z,27.4
2018-01-19T15:26:35.808Z,27.4
2018-01-19T15:27:35.276Z,27.4
2018-01-19T15:28:37.536Z,27.4
2018-01-19T15:29:37.613Z,27.4
2018-01-19T15:30:35.663Z,27.4
2018-01-19T15:31:35.488Z,27.4
2018-01-19T15:32:37.510Z,27.4
2018-01-19T15:33:35.590Z,27.4
2018-01-19T15:34:35.870Z,27.4
2018-01-19T15:35:35.792Z,27.4
2018-01-19T15:36:35.801Z,27.4
2018-01-19T15:37:36.004Z,27.4
2018-01-19T15:38:36.009Z,27.4
2018-01-19T15:39:37.895Z,27.4
2018-01-19T15:40:38.018Z,27.4
2018-01-19T15:41:36.728Z,27.4
2018-01-19T15:42:36.272Z,27.4
2018-01-19T15:43:36.335Z,27.4
2018-01-19T15:44:38.306Z,27.4
2018-01-19T15:45:38.415Z,27.4
2018-01-19T15:46:36.442Z,27.4
2018-01-19T15:47:38.195Z,27.4
2018-01-19T15:48:36.564Z,27.4
2018-01-19T15:49:36.368Z,27.4
2018-01-19T15:50:36.417Z,27.4
2018-01-19T15:51:36.691Z,27.4
2018-01-19T15:52:36.543Z,27.4
2018-01-19T15:53:38.484Z,27.4
2018-01-19T15:54:38.701Z,27.3
2018-01-19T15:55:38.744Z,27.4
2018-01-19T15:56:38.822Z,27.4
2018-01-19T15:57:38.528Z,27.4
2018-01-19T15:58:36.857Z,27.4
2018-01-19T15:59:39.407Z,27.3
2018-01-19T16:00:38.976Z,27.3
2018-01-19T16:01:36.913Z,27.4
2018-01-19T16:02:36.951Z,27.4
2018-01-19T16:03:37.212Z,27.3
2018-01-19T16:04:37.038Z,27.3
2018-01-19T16:05:37.128Z,27.3
2018-01-19T16:06:39.272Z,27.3
2018-01-19T16:07:39.339Z,27.3
2018-01-19T16:08:39.138Z,27.3
2018-01-19T16:09:37.276Z,27.3
2018-01-19T16:10:37.325Z,27.3
2018-01-19T16:11:37.430Z,27.3
2018-01-19T16:12:37.512Z,27.3
2018-01-19T16:13:37.721Z,27.3
2018-01-19T16:14:39.453Z,27.3
2018-01-19T16:15:37.894Z,27.3
2018-01-19T16:16:37.713Z,27.3
2018-01-19T16:17:37.946Z,27.3
2018-01-19T16:18:38.010Z,27.3
2018-01-19T16:19:37.811Z,27.3
2018-01-19T16:20:37.892Z,27.3
2018-01-19T16:21:37.865Z,27.3
2018-01-19T16:22:39.935Z,27.3
2018-01-19T16:23:39.978Z,27.3
2018-01-19T16:24:38.152Z,27.3
2018-01-19T16:25:38.184Z,27.3
2018-01-19T16:26:38.277Z,27.3
2018-01-19T16:27:38.227Z,27.3
2018-01-19T16:28:38.343Z,27.3
2018-01-19T16:29:38.593Z,27.3
2018-01-19T16:30:38.412Z,27.3
2018-01-19T16:31:38.616Z,27.3
2018-01-19T16:32:38.710Z,27.3
2018-01-19T16:33:38.509Z,27.3
2018-01-19T16:34:38.790Z,27.3
2018-01-19T16:35:38.845Z,27.3
2018-01-19T16:36:38.718Z,27.3
2018-01-19T16:37:39.356Z,27.3
2018-01-19T16:38:41.540Z,27.3
2018-01-19T16:39:40.787Z,27.3
2018-01-19T16:40:41.113Z,27.3
2018-01-19T16:41:41.148Z,27.3
2018-01-19T16:42:39.744Z,27.3
2018-01-19T16:43:39.178Z,27.3
2018-01-19T16:44:39.177Z,27.3
2018-01-19T16:45:39.267Z,27.3
2018-01-19T16:46:40.226Z,27.3
2018-01-19T16:47:39.503Z,27.3
2018-01-19T16:48:41.561Z,27.3
2018-01-19T16:49:41.605Z,27.3
2018-01-19T16:50:41.783Z,27.3
2018-01-19T16:51:40.410Z,27.3
2018-01-19T16:52:39.892Z,27.3
2018-01-19T16:53:39.835Z,27.3
2018-01-19T16:54:41.806Z,27.2
2018-01-19T16:55:41.945Z,27.2
2018-01-19T16:56:41.926Z,27.2
2018-01-19T16:57:40.008Z,27.2
2018-01-19T16:58:39.818Z,27.2
2018-01-19T16:59:40.078Z,27.2
2018-01-19T17:00:39.921Z,27.2
2018-01-19T17:01:42.194Z,27.3
2018-01-19T17:02:40.265Z,27.2
2018-01-19T17:03:42.243Z,27.2
2018-01-19T17:04:40.177Z,27.2
2018-01-19T17:05:40.434Z,27.2
2018-01-19T17:06:40.301Z,27.2
2018-01-19T17:07:42.527Z,27.2
2018-01-19T17:08:40.447Z,27.2
2018-01-19T17:09:40.702Z,27.2
2018-01-19T17:10:42.612Z,27.2
2018-01-19T17:11:40.480Z,27.2
2018-01-19T17:12:40.716Z,27.2
2018-01-19T17:13:42.735Z,27.2
2018-01-19T17:14:41.930Z,27.2
2018-01-19T17:15:40.925Z,27.2
2018-01-19T17:16:42.973Z,27.2
2018-01-19T17:17:40.889Z,27.2
2018-01-19T17:18:41.048Z,27.2
2018-01-19T17:19:41.090Z,27.2
2018-01-19T17:20:40.936Z,27.2
2018-01-19T17:21:40.992Z,27.2
2018-01-19T17:22:43.225Z,27.2
2018-01-19T17:23:43.208Z,27.2
2018-01-19T17:24:43.305Z,27.2
2018-01-19T17:25:43.228Z,27.2
2018-01-19T17:26:42.231Z,27.2
2018-01-19T17:27:43.199Z,27.2
2018-01-19T17:28:41.492Z,27.2
2018-01-19T17:29:44.690Z,27.2
2018-01-19T17:30:44.145Z,27.2
2018-01-19T17:31:41.731Z,27.2
2018-01-19T17:32:43.519Z,27.2
2018-01-19T17:33:41.621Z,27.2
2018-01-19T17:34:44.457Z,27.2
2018-01-19T17:35:41.961Z,27.2
2018-01-19T17:36:41.961Z,27.2
2018-01-19T17:37:41.990Z,27.2
2018-01-19T17:38:42.151Z,27.1
2018-01-19T17:39:42.809Z,27.2
2018-01-19T17:40:41.939Z,27.1
2018-01-19T17:41:44.801Z,27.2
2018-01-19T17:42:42.216Z,27.2
2018-01-19T17:43:42.275Z,27.2
2018-01-19T17:44:42.291Z,27.2
2018-01-19T17:45:42.114Z,27.2
2018-01-19T17:46:42.408Z,27.2
2018-01-19T17:47:44.403Z,27.1
2018-01-19T17:48:45.112Z,27.2
2018-01-19T17:49:44.454Z,27.1
2018-01-19T17:50:42.591Z,27.2
2018-01-19T17:51:42.507Z,27.1
2018-01-19T17:52:44.722Z,27.1
2018-01-19T17:53:43.293Z,27.2
2018-01-19T17:54:44.010Z,27.1
2018-01-19T17:55:43.940Z,27.1
2018-01-19T17:56:42.755Z,27.1
2018-01-19T17:57:42.822Z,27.1
2018-01-19T17:58:42.931Z,27.1
2018-01-19T17:59:45.125Z,27.1
2018-01-19T18:00:43.179Z,27.1
2018-01-19T18:01:43.899Z,27.1
2018-01-19T18:02:45.007Z,27.1
2018-01-19T18:03:45.278Z,27.1
2018-01-19T18:04:43.376Z,27.1
2018-01-19T18:05:43.192Z,27.1
2018-01-19T18:06:45.370Z,27.1
2018-01-19T18:07:44.713Z,27.1
2018-01-19T18:08:43.238Z,27.1
2018-01-19T18:09:43.987Z,27.1
2018-01-19T18:10:43.372Z,27.1
2018-01-19T18:11:45.432Z,27.1
2018-01-19T18:12:43.580Z,27.1
2018-01-19T18:13:44.215Z,27.1
2018-01-19T18:14:46.200Z,27.1
2018-01-19T18:15:43.963Z,27.1
2018-01-19T18:16:43.983Z,27.1
2018-01-19T18:17:43.920Z,27.1
2018-01-19T18:18:43.996Z,27.1
2018-01-19T18:19:45.887Z,27.1
2018-01-19T18:20:43.964Z,27.1
2018-01-19T18:21:46.397Z,27.1
2018-01-19T18:22:43.997Z,27.1
2018-01-19T18:23:46.206Z,27.1
2018-01-19T18:24:46.602Z,27.1
2018-01-19T18:25:46.027Z,27.1
2018-01-19T18:26:46.112Z,27.1
2018-01-19T18:27:46.836Z,27.1
2018-01-19T18:28:44.454Z,27.1
2018-01-19T18:29:44.540Z,27.1
2018-01-19T18:30:44.569Z,27.1
2018-01-19T18:31:46.531Z,27.1
2018-01-19T18:32:44.606Z,27.1
2018-01-19T18:33:44.684Z,27.1
2018-01-19T18:34:46.493Z,27.1
2018-01-19T18:35:46.760Z,27.1
2018-01-19T18:36:47.509Z,27.1
2018-01-19T18:37:46.937Z,27
2018-01-19T18:38:46.776Z,27
2018-01-19T18:39:44.840Z,27
2018-01-19T18:40:47.016Z,27.1
2018-01-19T18:41:44.972Z,27.1
2018-01-19T18:42:45.033Z,27
2018-01-19T18:43:45.004Z,27
2018-01-19T18:44:47.788Z,27
2018-01-19T18:45:47.196Z,27
2018-01-19T18:46:47.864Z,27
2018-01-19T18:47:47.354Z,27
2018-01-19T18:48:45.748Z,27
2018-01-19T18:49:46.243Z,27
2018-01-19T18:50:45.530Z,27
2018-01-19T18:51:46.139Z,27
2018-01-19T18:52:47.312Z,27
2018-01-19T18:53:47.386Z,27
2018-01-19T18:54:47.664Z,27
2018-01-19T18:55:47.656Z,27
2018-01-19T18:56:47.742Z,27
2018-01-19T18:57:45.724Z,27
2018-01-19T18:58:47.889Z,27
2018-01-19T18:59:45.768Z,27
2018-01-19T19:00:46.483Z,27
2018-01-19T19:01:46.596Z,27
2018-01-19T19:02:45.938Z,27
2018-01-19T19:03:46.239Z,27
2018-01-19T19:04:48.491Z,27
2018-01-19T19:05:47.999Z,27
2018-01-19T19:06:48.281Z,27
2018-01-19T19:07:48.264Z,27
2018-01-19T19:08:48.287Z,27
2018-01-19T19:09:48.362Z,27
2018-01-19T19:10:46.248Z,27
2018-01-19T19:11:48.293Z,27
2018-01-19T19:12:48.472Z,27
2018-01-19T19:13:46.445Z,27
2018-01-19T19:14:47.167Z,27
2018-01-19T19:15:47.235Z,27
2018-01-19T19:16:46.697Z,27
2018-01-19T19:17:48.870Z,27
2018-01-19T19:18:46.746Z,27
2018-01-19T19:19:46.976Z,27
2018-01-19T19:20:46.828Z,27
2018-01-19T19:21:46.870Z,27
2018-01-19T19:22:46.978Z,27
2018-01-19T19:23:49.168Z,27
2018-01-19T19:24:49.222Z,27
2018-01-19T19:25:47.146Z,26.9
2018-01-19T19:26:47.172Z,26.9
2018-01-19T19:27:49.419Z,26.9
2018-01-19T19:28:47.308Z,26.9
2018-01-19T19:29:49.476Z,26.9
2018-01-19T19:30:47.563Z,26.9
2018-01-19T19:31:49.567Z,26.9
2018-01-19T19:32:47.457Z,26.9
2018-01-19T19:33:47.538Z,26.9
2018-01-19T19:34:49.689Z,26.9
2018-01-19T19:35:49.584Z,26.9
2018-01-19T19:36:49.849Z,26.9
2018-01-19T19:37:47.787Z,26.9
2018-01-19T19:38:47.833Z,26.9
2018-01-19T19:39:49.988Z,26.9
2018-01-19T19:40:49.801Z,26.9
2018-01-19T19:41:49.834Z,26.9
2018-01-19T19:42:48.168Z,26.9
2018-01-19T19:43:49.933Z,26.9
2018-01-19T19:44:50.208Z,26.9
2018-01-19T19:45:50.295Z,27
2018-01-19T19:46:48.340Z,27
2018-01-19T19:47:48.218Z,27
2018-01-19T19:48:48.237Z,27
2018-01-19T19:49:50.163Z,27
2018-01-19T19:50:48.351Z,27
2018-01-19T19:51:48.365Z,27
2018-01-19T19:52:48.414Z,27
2018-01-19T19:53:50.594Z,27
2018-01-19T19:54:48.726Z,27
2018-01-19T19:55:50.723Z,27
2018-01-19T19:56:48.630Z,27
2018-01-19T19:57:50.834Z,27
2018-01-19T19:58:50.689Z,27
2018-01-19T19:59:51.006Z,27.1
2018-01-19T20:00:48.874Z,27.1
2018-01-19T20:01:50.805Z,27.1
2018-01-19T20:02:49.149Z,27.1
2018-01-19T20:03:49.169Z,27.1
2018-01-19T20:04:49.267Z,27.1
2018-01-19T20:05:49.138Z,27.1
2018-01-19T20:06:49.165Z,27.1
2018-01-19T20:07:51.422Z,27.1
2018-01-19T20:08:51.415Z,27.1
2018-01-19T20:09:49.496Z,27.1
2018-01-19T20:10:49.543Z,27.1
2018-01-19T20:11:51.515Z,27.1
2018-01-19T20:12:49.483Z,27.1
2018-01-19T20:13:51.685Z,27.1
2018-01-19T20:14:49.554Z,27.1
2018-01-19T20:15:49.587Z,27.1
2018-01-19T20:16:49.694Z,27.1
2018-01-19T20:17:51.869Z,27.1
2018-01-19T20:18:49.872Z,27.1
2018-01-19T20:19:49.830Z,27.1
2018-01-19T20:20:49.863Z,27.1
2018-01-19T20:21:50.224Z,27.1
2018-01-19T20:22:52.103Z,27.1
2018-01-19T20:23:51.917Z,27.1
2018-01-19T20:24:51.985Z,27.1
2018-01-19T20:25:52.045Z,27.1
2018-01-19T20:26:50.402Z,27.1
2018-01-19T20:27:50.232Z,27.1
2018-01-19T20:28:50.298Z,27.1
2018-01-19T20:29:50.318Z,27.1
2018-01-19T20:30:50.443Z,27.1
2018-01-19T20:31:50.687Z,27.1
2018-01-19T20:32:50.547Z,27.1
2018-01-19T20:33:50.764Z,27.1
2018-01-19T20:34:52.784Z,27.1
2018-01-19T20:35:50.849Z,27.1
2018-01-19T20:36:52.619Z,27.1
2018-01-19T20:37:52.707Z,27.1
2018-01-19T20:38:50.874Z,27.1
2018-01-19T20:39:51.130Z,27.1
2018-01-19T20:40:51.224Z,27.1
2018-01-19T20:41:53.181Z,27.2
2018-01-19T20:42:51.321Z,27.1
2018-01-19T20:43:51.138Z,27.1
2018-01-19T20:44:51.145Z,27.1
2018-01-19T20:45:51.384Z,27.1
2018-01-19T20:46:51.430Z,27.1
2018-01-19T20:47:53.416Z,27.1
2018-01-19T20:48:53.222Z,27.1
2018-01-19T20:49:51.560Z,27.1
2018-01-19T20:50:53.612Z,27.1
2018-01-19T20:51:53.676Z,27.1
2018-01-19T20:52:53.763Z,27.1
2018-01-19T20:53:51.716Z,27.1
2018-01-19T20:54:51.933Z,27.1
2018-01-19T20:55:53.940Z,27.1
2018-01-19T20:56:52.073Z,27.1
2018-01-19T20:57:51.947Z,27.1
2018-01-19T20:58:52.052Z,27.1
2018-01-19T20:59:52.104Z,27.1
2018-01-19T21:00:54.117Z,27.1
2018-01-19T21:01:54.139Z,27.1
2018-01-19T21:02:52.440Z,27.1
2018-01-19T21:03:54.417Z,27.1
2018-01-19T21:04:54.485Z,27.1
2018-01-19T21:05:52.423Z,27.1
2018-01-19T21:06:52.678Z,27.1
2018-01-19T21:07:52.507Z,27.1
2018-01-19T21:08:52.577Z,27.1
2018-01-19T21:09:52.572Z,27.1
2018-01-19T21:10:52.600Z,27.1
2018-01-19T21:11:54.895Z,27.1
2018-01-19T21:12:52.769Z,27.1
2018-01-19T21:13:53.026Z,27.1
2018-01-19T21:14:53.073Z,27.1
2018-01-19T21:15:52.896Z,27.1
2018-01-19T21:16:53.008Z,27.1
2018-01-19T21:17:53.240Z,27.1
2018-01-19T21:18:55.250Z,27.1
2018-01-19T21:19:53.204Z,27.1
2018-01-19T21:20:53.213Z,27.1
2018-01-19T21:21:53.305Z,27.1
2018-01-19T21:22:53.347Z,27.1
2018-01-19T21:23:53.439Z,27.1
2018-01-19T21:24:53.682Z,27.1
2018-01-19T21:25:55.711Z,27.1
2018-01-19T21:26:53.756Z,27.1
2018-01-19T21:27:53.553Z,27.1
2018-01-19T21:28:53.596Z,27.1
2018-01-19T21:29:53.914Z,27.1
2018-01-19T21:30:53.729Z,27.1
2018-01-19T21:31:55.967Z,27
2018-01-19T21:32:53.982Z,27.1
2018-01-19T21:33:56.007Z,27.1
2018-01-19T21:34:56.054Z,27
2018-01-19T21:35:55.852Z,27.1
2018-01-19T21:36:56.129Z,27
2018-01-19T21:37:54.016Z,27.1
2018-01-19T21:38:54.078Z,27.1
2018-01-19T21:39:56.058Z,27
2018-01-19T21:40:54.392Z,27
2018-01-19T21:41:54.472Z,27
2018-01-19T21:42:54.349Z,27
2018-01-19T21:43:56.604Z,27.1
2018-01-19T21:44:56.674Z,27
2018-01-19T21:45:54.707Z,27
2018-01-19T21:46:54.784Z,27
2018-01-19T21:47:54.602Z,27
2018-01-19T21:48:56.773Z,27
2018-01-19T21:49:54.919Z,27
2018-01-19T22:32:16.230Z,27.2
2018-01-19T22:33:16.260Z,27.2
2018-01-19T22:34:16.382Z,27.2
2018-01-19T22:35:16.389Z,27.2
2018-01-19T22:36:16.639Z,27.2
2018-01-19T22:37:16.514Z,27.2
2018-01-19T22:38:18.660Z,27.2
2018-01-19T22:39:18.744Z,27.2
2018-01-19T22:40:18.596Z,27.2
2018-01-19T22:41:16.929Z,27.1
2018-01-19T22:42:18.956Z,27.1
2018-01-19T22:43:18.752Z,27.1
2018-01-19T22:44:16.904Z,27.1
2018-01-19T22:45:16.924Z,27.1
2018-01-19T22:46:17.182Z,27.1
2018-01-19T22:47:17.071Z,27.1
2018-01-19T22:48:17.314Z,27.1
2018-01-19T22:49:17.196Z,27.1
2018-01-19T22:50:17.198Z,27
2018-01-19T22:51:17.227Z,27
2018-01-19T22:52:17.265Z,27
2018-01-19T22:53:17.332Z,27
2018-01-19T22:54:17.608Z,27
2018-01-19T22:55:17.445Z,27
2018-01-19T22:56:17.431Z,27
2018-01-19T22:57:17.768Z,27
2018-01-19T22:58:17.721Z,27
2018-01-19T22:59:17.551Z,27
2018-01-19T23:00:17.652Z,27
2018-01-19T23:01:17.709Z,27
2018-01-19T23:02:17.806Z,27
2018-01-19T23:03:17.989Z,27
2018-01-19T23:04:19.970Z,27
2018-01-19T23:05:17.884Z,27
2018-01-19T23:06:18.173Z,27
2018-01-19T23:07:18.220Z,27
2018-01-19T23:08:18.269Z,27
2018-01-19T23:09:18.147Z,27
2018-01-19T23:10:18.374Z,27
2018-01-19T23:11:18.403Z,27
2018-01-19T23:12:20.372Z,27
2018-01-19T23:13:20.497Z,27
2018-01-19T23:14:18.406Z,27
2018-01-19T23:15:20.352Z,27
2018-01-19T23:16:18.691Z,27
2018-01-19T23:17:18.729Z,27
2018-01-19T23:18:18.616Z,27
2018-01-19T23:19:18.645Z,27
2018-01-19T23:20:18.703Z,27
2018-01-19T23:21:18.780Z,26.9
2018-01-19T23:22:18.946Z,26.9
2018-01-19T23:23:18.995Z,26.9
2018-01-19T23:24:19.069Z,26.9
2018-01-19T23:25:20.854Z,26.9
2018-01-19T23:26:19.015Z,26.9
2018-01-19T23:27:19.025Z,26.9
2018-01-19T23:28:19.099Z,26.9
2018-01-19T23:29:19.111Z,26.9
2018-01-19T23:30:19.362Z,26.9
2018-01-19T23:31:21.125Z,26.9
2018-01-19T23:32:21.377Z,26.9
2018-01-19T23:33:21.426Z,26.9
2018-01-19T23:34:21.323Z,26.9
2018-01-19T23:35:21.567Z,26.9
2018-01-19T23:36:19.771Z,26.9
2018-01-19T23:37:19.539Z,26.9
2018-01-19T23:38:19.607Z,26.9
2018-01-19T23:39:21.578Z,26.9
2018-01-19T23:40:19.938Z,26.9
2018-01-19T23:41:19.986Z,26.9
2018-01-19T23:42:22.018Z,26.9
2018-01-19T23:43:19.921Z,26.9
2018-01-19T23:44:20.140Z,26.9
2018-01-19T23:45:22.148Z,26.9
2018-01-19T23:46:22.201Z,26.9
2018-01-19T23:47:20.054Z,26.9
2018-01-19T23:48:20.359Z,26.9
2018-01-19T23:49:22.357Z,26.9
2018-01-19T23:50:20.312Z,26.9
2018-01-19T23:51:22.524Z,26.9
2018-01-19T23:52:20.470Z,26.9
2018-01-19T23:53:22.670Z,26.9
2018-01-19T23:54:22.668Z,26.9
2018-01-19T23:55:22.693Z,26.9
2018-01-19T23:56:20.578Z,26.9
2018-01-19T23:57:20.631Z,26.9
2018-01-19T23:58:20.900Z,26.9
2018-01-19T23:59:20.916Z,26.9
